createdAt,value
2018-06-03T00:02:08.429Z,19.30
2018-06-03T00:04:35.349Z,19.20
2018-06-03T00:07:02.241Z,19.20
2018-06-03T00:09:29.232Z,19.30
2018-06-03T00:11:56.174Z,19.30
2018-06-03T00:14:23.045Z,19.30
2018-06-03T00:16:49.962Z,19.20
2018-06-03T00:19:16.848Z,19.20
2018-06-03T00:21:43.948Z,19.10
2018-06-03T00:24:10.997Z,19.00
2018-06-03T00:26:37.887Z,18.90
2018-06-03T00:29:04.860Z,18.90
2018-06-03T00:31:31.811Z,18.90
2018-06-03T00:33:58.754Z,18.80
2018-06-03T00:36:37.703Z,18.80
2018-06-03T00:39:07.640Z,18.60
2018-06-03T00:41:34.492Z,18.50
2018-06-03T00:44:01.440Z,18.40
2018-06-03T00:46:28.320Z,18.50
2018-06-03T00:48:55.935Z,18.50
2018-06-03T00:51:22.871Z,18.50
2018-06-03T00:53:49.752Z,18.50
2018-06-03T00:56:29.040Z,18.50
2018-06-03T00:58:55.925Z,18.50
2018-06-03T01:01:22.854Z,18.50
2018-06-03T01:03:49.750Z,18.50
2018-06-03T01:06:17.409Z,18.40
2018-06-03T01:08:44.339Z,18.40
2018-06-03T01:11:11.287Z,18.40
2018-06-03T01:13:38.897Z,18.60
2018-06-03T01:16:05.851Z,18.60
2018-06-03T01:18:32.762Z,18.70
2018-06-03T01:21:00.454Z,18.80
2018-06-03T01:23:27.332Z,18.80
2018-06-03T01:25:54.230Z,19.00
2018-06-03T01:28:21.144Z,19.10
2018-06-03T01:30:48.762Z,19.00
2018-06-03T01:33:15.693Z,19.00
2018-06-03T01:35:42.538Z,18.90
2018-06-03T01:38:09.441Z,18.70
2018-06-03T01:40:36.430Z,18.60
2018-06-03T01:43:03.299Z,18.50
2018-06-03T01:45:30.149Z,18.50
2018-06-03T01:47:57.076Z,18.50
2018-06-03T01:50:24.027Z,18.40
2018-06-03T01:52:50.966Z,18.40
2018-06-03T01:55:17.889Z,18.40
2018-06-03T01:57:44.834Z,18.20
2018-06-03T02:00:11.699Z,18.30
2018-06-03T02:02:38.615Z,18.20
2018-06-03T02:05:05.562Z,18.30
2018-06-03T02:07:32.517Z,18.20
2018-06-03T02:09:59.448Z,18.30
2018-06-03T02:12:26.316Z,18.10
2018-06-03T02:14:53.241Z,18.00
2018-06-03T02:17:20.839Z,18.10
2018-06-03T02:19:47.776Z,18.00
2018-06-03T02:22:14.659Z,18.10
2018-06-03T02:24:41.597Z,18.10
2018-06-03T02:27:08.528Z,18.10
2018-06-03T02:29:35.406Z,18.10
2018-06-03T02:32:02.342Z,18.00
2018-06-03T02:34:29.221Z,18.10
2018-06-03T02:36:56.092Z,18.10
2018-06-03T02:39:23.011Z,18.00
2018-06-03T02:41:49.908Z,18.10
2018-06-03T02:44:16.828Z,18.00
2018-06-03T02:46:43.701Z,18.00
2018-06-03T02:49:10.617Z,18.00
2018-06-03T02:51:37.584Z,18.00
2018-06-03T02:54:04.500Z,17.80
2018-06-03T02:56:31.426Z,17.70
2018-06-03T02:58:59.047Z,17.60
2018-06-03T03:01:25.975Z,17.60
2018-06-03T03:03:52.845Z,17.80
2018-06-03T03:06:19.878Z,17.80
2018-06-03T03:08:46.873Z,17.80
2018-06-03T03:11:14.606Z,17.90
2018-06-03T03:13:41.493Z,17.90
2018-06-03T03:16:08.399Z,17.90
2018-06-03T03:18:35.347Z,17.90
2018-06-03T03:21:02.222Z,17.90
2018-06-03T03:23:29.892Z,17.90
2018-06-03T03:25:56.785Z,17.90
2018-06-03T03:28:23.730Z,17.80
2018-06-03T03:30:50.612Z,17.70
2018-06-03T03:33:18.283Z,17.40
2018-06-03T03:35:45.252Z,17.40
2018-06-03T03:38:12.193Z,17.40
2018-06-03T03:40:39.064Z,17.50
2018-06-03T03:43:06.009Z,17.60
2018-06-03T03:45:32.876Z,17.60
2018-06-03T03:47:59.821Z,17.50
2018-06-03T03:50:26.810Z,17.60
2018-06-03T03:52:53.754Z,17.70
2018-06-03T03:55:20.602Z,17.70
2018-06-03T03:57:48.302Z,17.80
2018-06-03T04:00:15.175Z,17.70
2018-06-03T04:02:42.103Z,17.70
2018-06-03T04:05:09.026Z,17.70
2018-06-03T04:07:35.951Z,17.80
2018-06-03T04:10:02.906Z,17.90
2018-06-03T04:12:29.857Z,17.90
2018-06-03T04:14:56.733Z,17.90
2018-06-03T04:17:23.652Z,18.00
2018-06-03T04:19:50.573Z,18.00
2018-06-03T04:22:18.277Z,18.10
2018-06-03T04:24:45.139Z,18.10
2018-06-03T04:27:12.071Z,18.10
2018-06-03T04:29:38.959Z,18.20
2018-06-03T04:32:06.628Z,20.40
2018-06-03T04:34:34.225Z,20.20
2018-06-03T04:37:01.094Z,20.20
2018-06-03T04:39:28.044Z,20.30
2018-06-03T04:41:55.009Z,20.80
2018-06-03T04:44:21.885Z,21.40
2018-06-03T04:46:48.848Z,23.20
2018-06-03T04:49:35.025Z,23.30
2018-06-03T04:52:02.890Z,24.40
2018-06-03T04:54:29.854Z,24.40
2018-06-03T04:56:56.750Z,25.80
2018-06-03T04:59:23.685Z,26.00
2018-06-03T05:01:50.641Z,27.10
2018-06-03T05:04:18.309Z,29.40
2018-06-03T05:06:45.242Z,29.30
2018-06-03T05:09:12.179Z,29.20
2018-06-03T05:11:39.049Z,29.50
2018-06-03T05:14:06.035Z,31.20
2018-06-03T05:16:32.968Z,32.10
2018-06-03T05:18:59.846Z,30.30
2018-06-03T05:21:26.802Z,30.20
2018-06-03T05:23:53.737Z,30.90
2018-06-03T05:26:20.725Z,31.00
2018-06-03T05:28:47.689Z,31.80
2018-06-03T05:31:15.392Z,27.00
2018-06-03T05:33:42.350Z,26.90
2018-06-03T05:36:09.249Z,26.40
2018-06-03T05:38:36.212Z,25.30
2018-06-03T05:41:03.181Z,24.60
2018-06-03T05:43:30.063Z,23.80
2018-06-03T05:45:57.029Z,23.60
2018-06-03T05:48:23.998Z,23.20
2018-06-03T05:50:50.995Z,23.00
2018-06-03T05:53:17.876Z,22.60
2018-06-03T05:55:44.780Z,23.30
2018-06-03T05:58:12.484Z,24.10
2018-06-03T06:00:39.423Z,24.10
2018-06-03T06:03:06.449Z,24.80
2018-06-03T06:05:33.392Z,23.80
2018-06-03T06:08:00.242Z,23.30
2018-06-03T06:10:27.183Z,23.00
2018-06-03T06:12:54.083Z,22.80
2018-06-03T06:15:21.042Z,22.40
2018-06-03T06:17:48.009Z,22.20
2018-06-03T06:20:14.963Z,21.60
2018-06-03T06:22:42.648Z,21.50
2018-06-03T06:25:10.334Z,21.70
2018-06-03T06:27:37.227Z,21.70
2018-06-03T06:30:15.471Z,21.50
2018-06-03T06:32:47.441Z,22.00
2018-06-03T06:35:28.070Z,22.00
2018-06-03T06:38:12.540Z,22.10
2018-06-03T06:40:57.749Z,22.20
2018-06-03T06:43:41.439Z,21.70
2018-06-03T06:46:23.595Z,21.80
2018-06-03T06:49:07.457Z,22.30
2018-06-03T06:51:49.418Z,22.30
2018-06-03T06:54:33.384Z,22.10
2018-06-03T06:57:15.362Z,22.10
2018-06-03T06:59:58.061Z,22.30
2018-06-03T07:02:32.165Z,22.30
2018-06-03T07:05:04.449Z,22.50
2018-06-03T07:07:44.835Z,22.50
2018-06-03T07:10:24.237Z,22.60
2018-06-03T07:12:59.381Z,22.40
2018-06-03T07:15:35.669Z,22.40
2018-06-03T07:18:12.551Z,22.30
2018-06-03T07:20:50.440Z,22.50
2018-06-03T07:23:22.092Z,22.40
2018-06-03T07:25:52.761Z,22.70
2018-06-03T07:28:23.723Z,22.80
2018-06-03T07:30:54.649Z,22.70
2018-06-03T07:33:26.796Z,22.70
2018-06-03T07:35:57.817Z,23.00
2018-06-03T07:38:29.939Z,23.20
2018-06-03T07:41:01.081Z,23.20
2018-06-03T07:43:33.045Z,23.20
2018-06-03T07:46:00.185Z,23.20
2018-06-03T07:48:27.066Z,24.20
2018-06-03T07:50:54.029Z,27.50
2018-06-03T07:53:21.820Z,26.90
2018-06-03T07:55:52.545Z,26.10
2018-06-03T07:58:22.041Z,26.10
2018-06-03T08:00:51.462Z,24.80
2018-06-03T08:03:19.240Z,24.40
2018-06-03T08:05:46.469Z,24.40
2018-06-03T08:08:15.988Z,27.70
2018-06-03T08:10:43.286Z,27.60
2018-06-03T08:13:10.169Z,27.40
2018-06-03T08:15:37.121Z,30.30
2018-06-03T08:18:06.648Z,32.70
2018-06-03T08:20:34.819Z,33.60
2018-06-03T08:23:02.585Z,34.50
2018-06-03T08:25:40.953Z,34.40
2018-06-03T08:28:20.600Z,34.90
2018-06-03T08:33:41.212Z,36.50
2018-06-03T08:36:19.587Z,36.50
2018-06-03T08:38:58.039Z,37.50
2018-06-03T08:44:17.433Z,35.10
2018-06-03T08:46:58.590Z,34.50
2018-06-03T08:52:25.284Z,34.80
2018-06-03T08:57:46.740Z,34.80
2018-06-03T09:00:27.397Z,35.30
2018-06-03T09:03:06.632Z,35.00
2018-06-03T09:05:43.441Z,34.20
2018-06-03T09:10:59.212Z,33.40
2018-06-03T09:13:39.445Z,33.60
2018-06-03T09:19:11.586Z,33.30
2018-06-03T09:22:06.080Z,33.50
2018-06-03T09:24:46.608Z,33.00
2018-06-03T09:27:16.957Z,32.50
2018-06-03T09:29:50.413Z,31.90
2018-06-03T09:32:31.549Z,31.80
2018-06-03T09:35:00.544Z,31.50
2018-06-03T09:37:28.640Z,30.40
2018-06-03T09:40:06.136Z,30.10
2018-06-03T09:42:46.141Z,29.10
2018-06-03T09:45:14.890Z,28.90
2018-06-03T09:47:51.310Z,29.50
2018-06-03T09:50:20.940Z,30.40
2018-06-03T09:55:44.277Z,31.10
2018-06-03T10:01:10.182Z,32.20
2018-06-03T10:04:01.946Z,32.90
2018-06-03T10:06:40.429Z,33.40
2018-06-03T10:09:15.627Z,33.30
2018-06-03T10:14:31.099Z,33.50
2018-06-03T10:16:59.312Z,33.80
2018-06-03T10:19:27.585Z,33.80
2018-06-03T10:24:53.634Z,33.70
2018-06-03T10:27:30.192Z,33.20
2018-06-03T10:30:12.064Z,32.10
2018-06-03T10:32:55.021Z,29.80
2018-06-03T10:35:33.501Z,29.80
2018-06-03T10:38:14.286Z,29.20
2018-06-03T10:40:46.427Z,29.10
2018-06-03T10:43:26.272Z,29.90
2018-06-03T10:46:10.812Z,29.90
2018-06-03T10:48:58.835Z,30.10
2018-06-03T10:54:34.080Z,31.50
2018-06-03T10:57:08.889Z,31.50
2018-06-03T10:59:46.208Z,31.10
2018-06-03T11:02:26.823Z,31.00
2018-06-03T11:05:03.372Z,31.00
2018-06-03T11:07:31.176Z,31.50
2018-06-03T11:10:10.859Z,31.30
2018-06-03T11:12:53.107Z,30.60
2018-06-03T11:15:24.585Z,30.80
2018-06-03T11:17:52.080Z,30.50
2018-06-03T11:20:21.795Z,30.00
2018-06-03T11:22:50.027Z,30.60
2018-06-03T11:25:24.650Z,30.30
2018-06-03T11:27:51.711Z,30.30
2018-06-03T11:30:18.782Z,30.10
2018-06-03T11:32:46.420Z,30.30
2018-06-03T11:35:13.311Z,30.30
2018-06-03T11:37:40.293Z,31.20
2018-06-03T11:40:07.281Z,31.80
2018-06-03T11:42:34.918Z,32.30
2018-06-03T11:45:01.933Z,32.20
2018-06-03T11:47:28.872Z,31.90
2018-06-03T11:49:55.761Z,32.30
2018-06-03T11:52:22.676Z,32.40
2018-06-03T11:54:49.583Z,32.90
2018-06-03T11:57:19.563Z,32.90
2018-06-03T11:59:46.717Z,32.80
2018-06-03T12:02:13.723Z,32.60
2018-06-03T12:04:41.153Z,32.40
2018-06-03T12:07:16.235Z,31.30
2018-06-03T12:09:44.325Z,31.30
2018-06-03T12:12:11.359Z,31.20
2018-06-03T12:14:38.618Z,30.90
2018-06-03T12:17:05.622Z,30.30
2018-06-03T12:19:39.164Z,30.10
2018-06-03T12:22:10.173Z,29.10
2018-06-03T12:24:38.910Z,29.10
2018-06-03T12:27:07.315Z,29.30
2018-06-03T12:29:35.342Z,29.50
2018-06-03T12:32:02.308Z,29.50
2018-06-03T12:34:29.287Z,29.00
2018-06-03T12:36:56.270Z,29.50
2018-06-03T12:39:23.495Z,30.20
2018-06-03T12:41:52.571Z,29.60
2018-06-03T12:44:19.479Z,30.50
2018-06-03T12:46:47.889Z,31.00
2018-06-03T12:49:14.957Z,30.00
2018-06-03T12:51:43.898Z,30.90
2018-06-03T12:54:13.853Z,31.30
2018-06-03T12:56:43.942Z,32.20
2018-06-03T12:59:12.750Z,32.20
2018-06-03T13:01:39.676Z,32.60
2018-06-03T13:04:06.580Z,32.70
2018-06-03T13:06:34.874Z,32.80
2018-06-03T13:09:01.863Z,32.20
2018-06-03T13:11:28.903Z,31.80
2018-06-03T13:13:55.913Z,31.40
2018-06-03T13:16:22.929Z,31.40
2018-06-03T13:18:50.034Z,31.80
2018-06-03T13:21:17.029Z,31.70
2018-06-03T13:23:43.925Z,31.30
2018-06-03T13:26:15.736Z,30.80
2018-06-03T13:28:43.452Z,30.10
2018-06-03T13:31:10.399Z,30.00
2018-06-03T13:33:37.302Z,29.70
2018-06-03T13:36:04.374Z,29.90
2018-06-03T13:38:31.369Z,30.00
2018-06-03T13:40:58.288Z,30.30
2018-06-03T13:43:25.392Z,30.60
2018-06-03T13:45:52.322Z,30.20
2018-06-03T13:48:19.293Z,30.50
2018-06-03T13:50:46.255Z,30.70
2018-06-03T13:53:13.676Z,30.90
2018-06-03T13:55:40.681Z,31.10
2018-06-03T13:58:07.715Z,31.40
2018-06-03T14:00:35.880Z,31.50
2018-06-03T14:03:02.913Z,31.70
2018-06-03T14:05:30.025Z,31.60
2018-06-03T14:07:57.002Z,31.80
2018-06-03T14:10:23.964Z,31.80
2018-06-03T14:12:50.950Z,31.70
2018-06-03T14:15:17.939Z,31.40
2018-06-03T14:17:45.070Z,31.30
2018-06-03T14:20:12.147Z,31.10
2018-06-03T14:22:39.096Z,30.60
2018-06-03T14:25:06.096Z,30.20
2018-06-03T14:27:33.083Z,30.10
2018-06-03T14:30:18.128Z,30.50
2018-06-03T14:32:58.185Z,30.40
2018-06-03T14:35:25.390Z,29.80
2018-06-03T14:37:52.917Z,29.90
2018-06-03T14:40:19.991Z,30.20
2018-06-03T14:42:46.966Z,30.30
2018-06-03T14:45:13.851Z,30.30
2018-06-03T14:47:40.900Z,30.40
2018-06-03T14:50:07.991Z,30.00
2018-06-03T14:52:36.411Z,29.70
2018-06-03T14:55:04.603Z,29.90
2018-06-03T14:57:34.075Z,29.90
2018-06-03T15:00:10.207Z,30.10
2018-06-03T15:02:39.384Z,30.10
2018-06-03T15:05:06.454Z,30.00
2018-06-03T15:07:35.564Z,30.20
2018-06-03T15:10:02.594Z,30.20
2018-06-03T15:12:30.486Z,29.70
2018-06-03T15:15:03.897Z,29.70
2018-06-03T15:17:31.419Z,29.80
2018-06-03T15:19:59.620Z,29.70
2018-06-03T15:22:27.434Z,29.50
2018-06-03T15:24:55.432Z,29.50
2018-06-03T15:27:23.549Z,29.60
2018-06-03T15:29:50.997Z,29.70
2018-06-03T15:32:18.150Z,29.70
2018-06-03T15:34:49.912Z,29.70
2018-06-03T15:37:16.865Z,29.70
2018-06-03T15:39:44.176Z,29.60
2018-06-03T15:42:11.064Z,29.40
2018-06-03T15:44:37.996Z,29.40
2018-06-03T15:47:04.858Z,29.50
2018-06-03T15:49:32.207Z,29.50
2018-06-03T15:57:58.925Z,29.20
2018-06-03T16:00:26.109Z,29.20
2018-06-03T16:02:53.095Z,29.30
2018-06-03T16:05:20.072Z,29.40
2018-06-03T16:07:46.998Z,29.40
2018-06-03T16:10:14.017Z,29.40
2018-06-03T16:12:52.847Z,29.20
2018-06-03T16:18:13.457Z,29.10
2018-06-03T16:20:50.825Z,29.10
2018-06-03T16:23:26.480Z,28.90
2018-06-03T16:25:58.235Z,28.70
2018-06-03T16:28:27.036Z,28.70
2018-06-03T16:31:08.498Z,28.30
2018-06-03T16:33:50.184Z,28.20
2018-06-03T16:36:33.629Z,28.10
2018-06-03T16:39:12.006Z,28.20
2018-06-03T16:41:55.133Z,28.40
2018-06-03T16:44:35.632Z,28.30
2018-06-03T16:47:16.363Z,28.40
2018-06-03T16:49:59.180Z,28.40
2018-06-03T16:52:42.390Z,28.40
2018-06-03T16:55:26.374Z,28.50
2018-06-03T17:00:34.473Z,28.40
2018-06-03T17:03:01.385Z,28.30
2018-06-03T17:05:28.276Z,28.30
2018-06-03T17:07:56.106Z,28.50
2018-06-03T17:10:23.029Z,28.50
2018-06-03T17:12:50.020Z,28.30
2018-06-03T17:15:16.983Z,28.40
2018-06-03T17:17:43.915Z,28.20
2018-06-03T17:20:10.918Z,28.40
2018-06-03T17:22:49.701Z,28.30
2018-06-03T17:25:30.388Z,28.10
2018-06-03T17:28:06.477Z,28.10
2018-06-03T17:30:46.380Z,28.20
2018-06-03T17:33:28.608Z,28.00
2018-06-03T17:36:07.263Z,27.90
2018-06-03T17:38:44.342Z,27.90
2018-06-03T17:41:16.029Z,27.70
2018-06-03T17:43:47.104Z,27.80
2018-06-03T17:46:18.958Z,27.70
2018-06-03T17:48:50.038Z,27.50
2018-06-03T17:51:20.950Z,27.50
2018-06-03T17:53:52.016Z,27.60
2018-06-03T17:56:23.661Z,27.50
2018-06-03T17:58:54.373Z,27.60
2018-06-03T18:01:25.522Z,27.40
2018-06-03T18:03:56.658Z,27.40
2018-06-03T18:06:27.475Z,27.40
2018-06-03T18:08:58.182Z,27.40
2018-06-03T18:11:28.338Z,27.40
2018-06-03T18:13:58.170Z,27.30
2018-06-03T18:16:28.831Z,27.40
2018-06-03T18:18:57.997Z,27.30
2018-06-03T18:21:30.203Z,27.30
2018-06-03T18:24:00.908Z,27.30
2018-06-03T18:26:31.557Z,27.30
2018-06-03T18:29:02.912Z,27.20
2018-06-03T18:31:34.074Z,27.20
2018-06-03T18:34:05.039Z,27.10
2018-06-03T18:36:35.803Z,27.10
2018-06-03T18:39:06.287Z,27.10
2018-06-03T18:41:37.900Z,27.10
2018-06-03T18:44:09.259Z,27.00
2018-06-03T18:46:40.008Z,27.00
2018-06-03T18:49:11.644Z,26.90
2018-06-03T18:51:43.870Z,26.90
2018-06-03T18:54:14.803Z,26.80
2018-06-03T18:56:46.112Z,26.70
2018-06-03T18:59:17.545Z,26.60
2018-06-03T19:01:44.642Z,26.60
2018-06-03T19:04:11.590Z,26.50
2018-06-03T19:06:38.782Z,26.40
2018-06-03T19:09:05.713Z,26.30
2018-06-03T19:11:32.660Z,26.30
2018-06-03T19:13:59.550Z,26.10
2018-06-03T19:16:26.604Z,26.00
2018-06-03T19:18:53.492Z,25.90
2018-06-03T19:21:20.429Z,25.80
2018-06-03T19:23:47.398Z,25.70
2018-06-03T19:26:14.349Z,25.60
2018-06-03T19:28:41.248Z,25.50
2018-06-03T19:31:08.280Z,25.50
2018-06-03T19:33:35.285Z,25.50
2018-06-03T19:36:02.193Z,25.50
2018-06-03T19:38:29.097Z,25.40
2018-06-03T19:40:56.137Z,25.40
2018-06-03T19:43:23.064Z,25.30
2018-06-03T19:45:50.840Z,25.30
2018-06-03T19:48:17.738Z,25.30
2018-06-03T19:50:44.745Z,25.30
2018-06-03T19:53:12.350Z,25.10
2018-06-03T19:55:39.216Z,25.10
2018-06-03T19:58:06.206Z,25.10
2018-06-03T20:00:33.103Z,25.00
2018-06-03T20:03:00.147Z,24.90
2018-06-03T20:05:27.115Z,24.80
2018-06-03T20:07:54.190Z,24.80
2018-06-03T20:10:21.836Z,24.90
2018-06-03T20:12:48.838Z,24.90
2018-06-03T20:15:16.754Z,25.00
2018-06-03T20:17:44.844Z,25.00
2018-06-03T20:20:12.330Z,25.00
2018-06-03T20:22:39.753Z,25.10
2018-06-03T20:25:06.971Z,25.00
2018-06-03T20:27:33.858Z,25.10
2018-06-03T20:30:00.770Z,25.00
2018-06-03T20:32:27.885Z,25.00
2018-06-03T20:34:54.797Z,25.00
2018-06-03T20:37:22.514Z,24.90
2018-06-03T20:39:51.316Z,24.90
2018-06-03T20:42:18.368Z,24.90
2018-06-03T20:44:45.360Z,24.80
2018-06-03T20:47:12.493Z,24.80
2018-06-03T20:49:39.670Z,24.80
2018-06-03T20:52:06.562Z,24.80
2018-06-03T20:54:33.769Z,24.80
2018-06-03T20:57:00.696Z,24.40
2018-06-03T20:59:28.682Z,24.30
2018-06-03T21:01:55.609Z,24.00
2018-06-03T21:04:22.594Z,24.00
2018-06-03T21:06:49.483Z,23.70
2018-06-03T21:09:17.197Z,23.50
2018-06-03T21:11:44.215Z,23.40
2018-06-03T21:14:11.957Z,23.40
2018-06-03T21:16:38.862Z,23.30
2018-06-03T21:19:05.817Z,23.20
2018-06-03T21:21:36.220Z,23.10
2018-06-03T21:24:03.205Z,23.00
2018-06-03T21:26:30.185Z,23.00
2018-06-03T21:28:57.797Z,22.90
2018-06-03T21:31:24.769Z,22.90
2018-06-03T21:33:51.672Z,22.90
2018-06-03T21:36:18.655Z,22.70
2018-06-03T21:38:45.645Z,22.70
2018-06-03T21:41:12.574Z,22.70
2018-06-03T21:43:40.200Z,22.50
2018-06-03T21:46:07.195Z,22.60
2018-06-03T21:48:34.856Z,22.50
2018-06-03T21:51:02.512Z,22.50
2018-06-03T21:53:30.223Z,22.40
2018-06-03T21:55:57.193Z,22.40
2018-06-03T21:58:24.157Z,22.40
2018-06-03T22:00:51.794Z,22.30
2018-06-03T22:03:18.736Z,22.30
2018-06-03T22:05:45.626Z,22.20
2018-06-03T22:08:12.618Z,22.20
2018-06-03T22:10:39.521Z,22.20
2018-06-03T22:13:07.299Z,22.10
2018-06-03T22:15:34.241Z,22.10
2018-06-03T22:18:02.132Z,22.20
2018-06-03T22:20:29.110Z,22.00
2018-06-03T22:22:56.732Z,22.00
2018-06-03T22:25:23.686Z,21.90
2018-06-03T22:27:50.627Z,21.90
2018-06-03T22:30:17.628Z,22.00
2018-06-03T22:32:45.337Z,21.80
2018-06-03T22:35:12.224Z,21.80
2018-06-03T22:37:39.128Z,21.80
2018-06-03T22:40:06.127Z,21.80
2018-06-03T22:42:32.997Z,21.80
2018-06-03T22:44:59.949Z,21.70
2018-06-03T22:47:26.846Z,21.60
2018-06-03T22:49:53.800Z,21.70
2018-06-03T22:52:20.776Z,21.60
2018-06-03T22:54:48.406Z,21.50
2018-06-03T22:57:15.380Z,21.50
2018-06-03T22:59:43.108Z,21.50
2018-06-03T23:02:10.056Z,21.50
2018-06-03T23:04:37.000Z,21.30
2018-06-03T23:07:04.001Z,21.40
2018-06-03T23:09:30.902Z,21.30
2018-06-03T23:11:57.859Z,21.30
2018-06-03T23:14:24.941Z,21.10
2018-06-03T23:16:51.845Z,21.20
2018-06-03T23:19:18.773Z,21.10
2018-06-03T23:21:45.721Z,21.10
2018-06-03T23:24:12.609Z,21.00
2018-06-03T23:26:40.439Z,21.00
2018-06-03T23:29:07.396Z,21.00
2018-06-03T23:31:34.392Z,21.00
2018-06-03T23:34:01.293Z,20.90
2018-06-03T23:36:28.923Z,20.90
2018-06-03T23:38:55.891Z,20.90
2018-06-03T23:41:23.434Z,20.90
2018-06-03T23:43:50.607Z,20.80
2018-06-03T23:46:17.509Z,20.80
2018-06-03T23:48:44.505Z,20.80
2018-06-03T23:51:11.395Z,20.80
2018-06-03T23:53:38.321Z,20.70
2018-06-03T23:56:05.908Z,20.60
2018-06-03T23:58:32.856Z,20.60
